Time;durP1;ratioP1;P1;durP2;ratioP2;P2;SDS_P1;SDS_P2;PMS_P1;PMS_P2;Temp;Humidity;BMP_temperature;BMP_pressure;BME280_temperature;BME280_humidity;BME280_pressure;Samples;Min_cycle;Max_cycle;Signal;HPM_P1;HPM_P2
2021/12/01 00:03:53;;;;;;;9.23;1.80;;;2.20;99.90;;;;;;8416788;28;20196;-66
2021/12/01 00:07:55;;;;;;;4.53;1.30;;;2.30;99.90;;;;;;8431862;28;20222;-67
2021/12/01 00:11:56;;;;;;;4.77;0.93;;;2.40;99.90;;;;;;8416415;28;20209;-65
2021/12/01 00:15:56;;;;;;;4.23;1.90;;;2.40;99.90;;;;;;8414084;28;20211;-66
2021/12/01 00:19:59;;;;;;;3.73;1.80;;;2.40;99.90;;;;;;8411052;28;20180;-68
2021/12/01 00:24:00;;;;;;;3.70;0.90;;;2.40;99.90;;;;;;8412570;28;20188;-67
2021/12/01 00:28:01;;;;;;;4.70;1.00;;;2.40;99.90;;;;;;8412138;28;20212;-66
2021/12/01 00:32:03;;;;;;;2.83;1.17;;;2.30;99.90;;;;;;8423237;28;20187;-68
2021/12/01 00:36:04;;;;;;;2.83;0.77;;;2.40;99.90;;;;;;8423349;28;20215;-66
2021/12/01 00:40:08;;;;;;;3.93;1.00;;;2.30;99.90;;;;;;8426137;28;20185;-65
2021/12/01 00:44:10;;;;;;;3.70;0.77;;;2.20;99.90;;;;;;8425227;28;20189;-66
2021/12/01 00:48:10;;;;;;;2.43;0.80;;;2.10;99.90;;;;;;8423803;28;20201;-67
2021/12/01 00:52:11;;;;;;;2.13;0.97;;;2.10;99.90;;;;;;8428869;28;20237;-66
2021/12/01 00:56:12;;;;;;;3.27;0.90;;;1.90;99.90;;;;;;8417192;28;20302;-67
2021/12/01 01:00:14;;;;;;;4.87;1.00;;;1.80;99.90;;;;;;8417544;28;20219;-65
2021/12/01 01:04:15;;;;;;;5.97;1.67;;;1.80;99.90;;;;;;8415871;28;20181;-66
2021/12/01 01:08:17;;;;;;;2.97;1.40;;;1.60;99.90;;;;;;8404742;28;20189;-66
2021/12/01 01:16:37;;;;;;;3.37;1.03;;;1.40;99.90;;;;;;8408660;28;20212;-66
2021/12/01 01:20:38;;;;;;;1.53;0.60;;;1.20;99.90;;;;;;8402397;28;20355;-67
2021/12/01 01:24:39;;;;;;;2.67;0.63;;;1.10;99.90;;;;;;8406112;28;20185;-66
2021/12/01 01:28:40;;;;;;;4.73;1.20;;;0.90;99.90;;;;;;8410506;28;20185;-66
2021/12/01 01:32:41;;;;;;;2.90;1.10;;;0.80;99.90;;;;;;8416979;28;20176;-67
2021/12/01 01:36:42;;;;;;;1.47;0.80;;;0.60;99.90;;;;;;8411176;28;20212;-66
2021/12/01 01:40:43;;;;;;;2.33;1.07;;;0.40;99.90;;;;;;8405829;28;20184;-68
2021/12/01 01:44:43;;;;;;;1.50;1.00;;;0.40;99.90;;;;;;8413690;28;20185;-66
2021/12/01 01:48:49;;;;;;;7.30;1.70;;;0.30;99.90;;;;;;8414675;28;20199;-67
2021/12/01 01:52:50;;;;;;;4.53;1.03;;;0.20;99.90;;;;;;8402421;28;20183;-65
2021/12/01 01:56:51;;;;;;;6.47;0.90;;;0.30;99.90;;;;;;8412964;28;20212;-65
2021/12/01 02:05:16;;;;;;;2.33;0.80;;;0.40;99.90;;;;;;8408329;28;20192;-66
2021/12/01 02:09:23;;;;;;;3.20;0.93;;;0.30;99.90;;;;;;8415574;28;20191;-66
2021/12/01 02:13:24;;;;;;;1.63;0.93;;;0.20;99.90;;;;;;8418839;28;20204;-66
2021/12/01 02:17:24;;;;;;;4.10;1.07;;;0.10;99.90;;;;;;8411077;28;20211;-65
2021/12/01 02:21:30;;;;;;;3.80;1.53;;;0.00;99.90;;;;;;8414657;28;20184;-66
2021/12/01 02:25:31;;;;;;;4.40;1.77;;;-0.10;99.90;;;;;;8416919;28;20215;-66
2021/12/01 02:29:32;;;;;;;2.47;1.33;;;-0.20;99.90;;;;;;8418456;28;20180;-65
2021/12/01 02:33:33;;;;;;;1.93;1.23;;;-0.20;99.90;;;;;;8420959;28;20208;-66
2021/12/01 02:37:37;;;;;;;4.23;1.50;;;-0.30;99.90;;;;;;8415472;28;20226;-67
2021/12/01 02:41:38;;;;;;;5.47;1.43;;;-0.30;99.90;;;;;;8419954;28;20172;-68
2021/12/01 02:45:40;;;;;;;8.57;1.80;;;-0.30;99.90;;;;;;8418183;28;20185;-66
2021/12/01 02:49:41;;;;;;;3.77;1.30;;;-0.30;99.90;;;;;;8415249;28;20214;-66
2021/12/01 02:53:42;;;;;;;4.67;1.47;;;-0.40;99.90;;;;;;8414837;28;20179;-66
2021/12/01 02:57:49;;;;;;;6.07;1.77;;;-0.40;99.90;;;;;;8419161;28;20207;-69
2021/12/01 03:01:50;;;;;;;3.53;1.70;;;-0.40;99.90;;;;;;8416368;28;20281;-66
2021/12/01 03:05:51;;;;;;;4.50;1.67;;;-0.40;99.90;;;;;;8418975;28;20211;-66
2021/12/01 03:09:52;;;;;;;5.73;1.17;;;-0.30;99.90;;;;;;8417449;28;20183;-68
2021/12/01 03:13:54;;;;;;;2.87;1.23;;;-0.30;99.90;;;;;;8423914;28;20213;-66
2021/12/01 03:17:55;;;;;;;3.10;1.47;;;-0.20;99.90;;;;;;8426690;28;20209;-67
2021/12/01 03:21:56;;;;;;;5.87;2.07;;;-0.10;99.90;;;;;;8423205;28;20176;-67
2021/12/01 03:25:56;;;;;;;6.40;2.13;;;0.00;99.90;;;;;;8421298;28;20191;-68
2021/12/01 03:29:57;;;;;;;5.67;2.30;;;0.10;99.90;;;;;;8421094;28;20180;-69
2021/12/01 03:33:58;;;;;;;3.63;1.70;;;0.20;99.90;;;;;;8422728;28;20181;-66
2021/12/01 03:37:59;;;;;;;5.03;1.87;;;0.30;99.90;;;;;;8424928;28;20195;-67
2021/12/01 03:42:00;;;;;;;5.53;2.00;;;0.40;99.90;;;;;;8424895;28;20188;-67
2021/12/01 03:46:01;;;;;;;6.70;1.80;;;0.40;99.90;;;;;;8423394;28;20190;-67
2021/12/01 03:50:02;;;;;;;6.20;2.40;;;0.50;99.90;;;;;;8430543;28;20196;-67
2021/12/01 03:54:03;;;;;;;6.33;2.37;;;0.50;99.90;;;;;;8422010;28;20567;-66
2021/12/01 03:58:04;;;;;;;7.03;3.23;;;0.60;99.90;;;;;;8424462;28;20181;-67
2021/12/01 04:02:07;;;;;;;11.37;3.83;;;0.70;99.90;;;;;;8420059;28;20238;-68
2021/12/01 04:06:08;;;;;;;8.23;3.60;;;0.70;99.90;;;;;;8424269;28;20192;-66
2021/12/01 04:10:12;;;;;;;6.73;4.40;;;0.80;99.90;;;;;;8425639;28;20180;-66
2021/12/01 04:14:13;;;;;;;6.20;3.50;;;0.80;99.90;;;;;;8424769;28;20181;-66
2021/12/01 04:18:14;;;;;;;8.40;3.07;;;0.90;99.90;;;;;;8426382;28;20172;-66
2021/12/01 04:22:18;;;;;;;7.17;2.43;;;0.90;99.90;;;;;;8422662;28;20282;-67
2021/12/01 04:26:23;;;;;;;7.33;2.07;;;0.90;99.90;;;;;;8423287;28;20180;-66
2021/12/01 04:30:25;;;;;;;6.07;2.50;;;1.00;99.90;;;;;;8421346;28;20177;-66
2021/12/01 04:34:26;;;;;;;7.00;2.47;;;1.00;99.90;;;;;;8422687;28;20192;-66
2021/12/01 04:38:30;;;;;;;4.10;1.70;;;1.10;99.90;;;;;;8422441;28;20192;-67
2021/12/01 04:42:32;;;;;;;9.90;2.60;;;1.10;99.90;;;;;;8418345;28;20188;-66
2021/12/01 04:46:38;;;;;;;5.80;2.23;;;1.10;99.90;;;;;;8415890;28;20165;-66
2021/12/01 04:50:39;;;;;;;5.77;2.03;;;1.10;99.90;;;;;;8423681;28;20180;-68
2021/12/01 04:54:40;;;;;;;5.10;2.47;;;1.10;99.90;;;;;;8423490;28;20236;-68
2021/12/01 04:58:40;;;;;;;5.50;3.13;;;1.20;99.90;;;;;;8421984;28;20177;-66
2021/12/01 05:02:41;;;;;;;8.80;2.40;;;1.20;99.90;;;;;;8419961;28;20196;-66
2021/12/01 05:06:42;;;;;;;9.07;2.87;;;1.20;99.90;;;;;;8420767;28;20185;-67
2021/12/01 05:10:43;;;;;;;7.67;2.37;;;1.20;99.90;;;;;;8423527;28;20184;-67
2021/12/01 05:14:43;;;;;;;8.83;2.27;;;1.30;99.90;;;;;;8420098;28;20291;-67
2021/12/01 05:18:44;;;;;;;5.60;2.40;;;1.40;99.90;;;;;;8421370;28;20263;-66
2021/12/01 05:22:45;;;;;;;7.57;2.90;;;1.50;99.90;;;;;;8421281;28;20554;-65
2021/12/01 05:26:46;;;;;;;7.73;2.10;;;1.60;99.90;;;;;;8422106;28;20176;-66
2021/12/01 05:30:47;;;;;;;3.90;1.73;;;1.70;99.90;;;;;;8422693;28;20256;-65
2021/12/01 05:34:48;;;;;;;8.07;2.47;;;1.70;99.90;;;;;;8422394;28;20487;-68
2021/12/01 05:38:49;;;;;;;4.73;2.67;;;1.80;99.90;;;;;;8423986;28;20188;-67
2021/12/01 05:42:50;;;;;;;4.97;2.27;;;1.80;99.90;;;;;;8420812;28;20183;-66
2021/12/01 05:46:50;;;;;;;12.37;2.57;;;1.80;99.90;;;;;;8421101;28;20509;-66
2021/12/01 05:50:51;;;;;;;9.43;3.27;;;1.80;99.90;;;;;;8421970;28;20216;-67
2021/12/01 05:54:52;;;;;;;5.13;3.40;;;1.80;99.90;;;;;;8421634;28;20273;-66
2021/12/01 05:58:53;;;;;;;8.57;3.90;;;1.90;99.90;;;;;;8416454;28;20177;-66
2021/12/01 06:02:54;;;;;;;6.00;2.87;;;1.90;99.90;;;;;;8422407;28;20200;-67
2021/12/01 06:06:55;;;;;;;5.47;2.97;;;1.90;99.90;;;;;;8421859;28;20613;-65
2021/12/01 06:10:56;;;;;;;5.20;2.87;;;1.90;99.90;;;;;;8423141;28;20181;-66
2021/12/01 06:14:58;;;;;;;7.77;2.90;;;2.00;99.90;;;;;;8422497;28;20211;-67
2021/12/01 06:18:58;;;;;;;8.70;2.90;;;2.00;99.90;;;;;;8422553;28;20176;-65
2021/12/01 06:22:59;;;;;;;7.87;3.77;;;2.00;99.90;;;;;;8415590;28;20248;-66
2021/12/01 06:27:00;;;;;;;8.23;3.30;;;2.10;99.90;;;;;;8422483;28;20181;-65
2021/12/01 06:31:01;;;;;;;5.13;2.93;;;2.10;99.90;;;;;;8413548;28;20179;-65
2021/12/01 06:35:03;;;;;;;6.13;3.07;;;2.10;99.90;;;;;;8421545;28;20200;-66
2021/12/01 06:39:06;;;;;;;8.40;4.27;;;2.20;99.90;;;;;;8422182;28;20188;-66
2021/12/01 06:43:07;;;;;;;9.90;4.50;;;2.20;99.90;;;;;;8420197;28;20291;-65
2021/12/01 06:47:07;;;;;;;9.27;3.73;;;2.20;99.90;;;;;;8418504;28;20191;-65
2021/12/01 06:51:08;;;;;;;6.23;3.10;;;2.20;99.90;;;;;;8415942;28;20188;-65
2021/12/01 06:55:10;;;;;;;5.90;2.47;;;2.20;99.90;;;;;;8420347;28;20208;-67
2021/12/01 06:59:11;;;;;;;10.70;3.53;;;2.30;99.90;;;;;;8417635;28;20203;-68
2021/12/01 07:03:11;;;;;;;12.20;4.00;;;2.30;99.90;;;;;;8421929;28;20279;-67
2021/12/01 07:07:13;;;;;;;6.40;3.50;;;2.30;99.90;;;;;;8418718;28;20185;-67
2021/12/01 07:11:14;;;;;;;14.83;3.83;;;2.40;99.90;;;;;;8417714;28;20245;-68
2021/12/01 07:15:15;;;;;;;8.60;3.63;;;2.40;99.90;;;;;;8417153;28;20196;-67
2021/12/01 07:19:18;;;;;;;12.87;3.87;;;2.50;99.90;;;;;;8421041;28;20184;-67
2021/12/01 07:23:19;;;;;;;10.30;3.80;;;2.50;99.90;;;;;;8419188;28;20172;-67
2021/12/01 07:27:20;;;;;;;8.67;4.40;;;2.50;99.90;;;;;;8421541;28;20193;-68
2021/12/01 07:31:21;;;;;;;12.03;10.00;;;2.50;99.90;;;;;;8415787;28;20176;-68
2021/12/01 07:35:22;;;;;;;8.90;6.10;;;2.60;99.90;;;;;;8417352;28;20276;-68
2021/12/01 07:39:22;;;;;;;14.63;5.07;;;2.60;99.90;;;;;;8421711;28;20177;-67
2021/12/01 07:43:23;;;;;;;15.13;4.97;;;2.60;99.90;;;;;;8418943;28;20175;-66
2021/12/01 07:47:24;;;;;;;16.80;7.50;;;2.70;99.90;;;;;;8421105;28;20207;-67
2021/12/01 07:51:25;;;;;;;15.77;7.37;;;2.70;99.90;;;;;;8416836;28;20186;-67
2021/12/01 07:55:25;;;;;;;11.63;6.07;;;2.70;99.90;;;;;;8419490;28;20196;-67
2021/12/01 07:59:26;;;;;;;13.13;5.50;;;2.70;99.90;;;;;;8423341;28;20356;-66
2021/12/01 08:03:27;;;;;;;13.90;5.83;;;2.80;99.90;;;;;;8427057;28;20193;-67
2021/12/01 08:07:28;;;;;;;12.40;5.00;;;2.80;99.90;;;;;;8424967;28;20188;-67
2021/12/01 08:11:29;;;;;;;14.37;5.10;;;2.90;99.90;;;;;;8427085;28;20180;-68
2021/12/01 08:15:30;;;;;;;13.90;6.20;;;3.00;99.90;;;;;;8425940;28;20276;-67
2021/12/01 08:19:31;;;;;;;17.93;6.53;;;3.00;99.90;;;;;;8428259;28;20201;-68
2021/12/01 08:23:32;;;;;;;12.77;6.60;;;3.00;99.90;;;;;;8424872;28;20263;-67
2021/12/01 08:27:32;;;;;;;15.43;5.60;;;3.10;99.90;;;;;;8426729;28;20189;-67
2021/12/01 08:31:33;;;;;;;17.60;9.87;;;3.10;99.90;;;;;;8421310;28;20192;-67
2021/12/01 08:35:34;;;;;;;18.37;7.97;;;3.10;99.90;;;;;;8424133;28;20292;-67
2021/12/01 08:39:36;;;;;;;16.37;8.13;;;3.10;99.90;;;;;;8425874;28;20180;-67
2021/12/01 08:43:37;;;;;;;13.83;5.13;;;3.10;99.90;;;;;;8423911;28;20209;-67
2021/12/01 08:47:38;;;;;;;11.30;4.83;;;3.10;99.90;;;;;;8426596;28;20185;-68
2021/12/01 08:51:39;;;;;;;12.80;6.00;;;3.20;99.90;;;;;;8422035;28;20189;-68
2021/12/01 08:55:41;;;;;;;10.77;6.03;;;3.30;99.90;;;;;;8422113;28;20199;-69
2021/12/01 08:59:44;;;;;;;16.00;7.10;;;3.40;99.90;;;;;;8426774;28;20175;-69
2021/12/01 09:03:45;;;;;;;14.37;6.83;;;3.50;99.90;;;;;;8424795;28;20196;-68
2021/12/01 09:07:46;;;;;;;13.70;6.27;;;3.60;99.90;;;;;;8426694;28;20255;-68
2021/12/01 09:11:49;;;;;;;15.30;5.20;;;3.70;99.90;;;;;;8415694;28;20181;-69
2021/12/01 09:15:52;;;;;;;8.83;5.13;;;3.90;99.90;;;;;;8425301;28;20239;-68
2021/12/01 09:19:53;;;;;;;14.23;8.33;;;4.10;99.90;;;;;;8424835;28;20276;-68
2021/12/01 09:23:54;;;;;;;12.37;5.83;;;4.40;99.90;;;;;;8426527;28;20180;-68
2021/12/01 09:27:55;;;;;;;11.87;7.67;;;4.60;99.90;;;;;;8425780;28;20188;-68
2021/12/01 09:31:57;;;;;;;11.63;6.67;;;4.80;99.90;;;;;;8425906;28;20176;-68
2021/12/01 09:35:58;;;;;;;10.13;6.37;;;4.90;99.90;;;;;;8423749;28;20212;-68
2021/12/01 09:39:59;;;;;;;13.43;5.97;;;5.00;99.90;;;;;;8426099;28;20188;-68
2021/12/01 09:44:00;;;;;;;5.60;4.03;;;5.10;99.90;;;;;;8424673;28;20176;-71
2021/12/01 09:48:01;;;;;;;5.07;2.87;;;5.10;99.90;;;;;;8425090;28;20172;-68
2021/12/01 09:52:02;;;;;;;4.33;2.50;;;5.10;99.90;;;;;;8424709;28;20180;-68
2021/12/01 09:56:04;;;;;;;3.03;2.07;;;5.20;99.90;;;;;;8421680;28;20286;-68
2021/12/01 10:00:06;;;;;;;3.07;1.87;;;5.20;99.90;;;;;;8424007;28;20188;-69
2021/12/01 10:04:07;;;;;;;3.60;1.90;;;5.20;99.90;;;;;;8423234;28;20200;-67
2021/12/01 10:08:29;;;;;;;3.30;1.93;;;5.20;99.90;;;;;;8422337;28;20195;-69
2021/12/01 10:12:45;;;;;;;4.00;1.87;;;5.20;99.90;;;;;;8424049;28;20173;-67
2021/12/01 10:16:50;;;;;;;2.37;1.37;;;5.30;99.90;;;;;;8421125;28;20226;-68
2021/12/01 10:21:09;;;;;;;1.40;1.23;;;5.30;99.90;;;;;;8422441;28;20204;-68
2021/12/01 10:25:29;;;;;;;1.60;1.27;;;5.40;99.90;;;;;;8415862;28;20184;-68
2021/12/01 10:29:34;;;;;;;1.63;0.90;;;5.50;99.90;;;;;;8422811;28;20181;-68
2021/12/01 10:33:35;;;;;;;1.90;0.80;;;5.50;99.90;;;;;;8424588;28;20183;-68
2021/12/01 10:37:39;;;;;;;1.50;1.00;;;5.60;99.90;;;;;;8423028;28;20289;-69
2021/12/01 10:41:43;;;;;;;1.93;1.33;;;5.60;99.90;;;;;;8420710;28;20240;-68
2021/12/01 10:45:47;;;;;;;1.30;1.10;;;5.70;99.90;;;;;;8423605;28;20240;-68
2021/12/01 10:49:47;;;;;;;2.23;1.50;;;5.70;99.90;;;;;;8421297;28;20190;-67
2021/12/01 10:53:56;;;;;;;1.57;1.30;;;5.70;99.90;;;;;;8421019;28;20298;-70
2021/12/01 10:58:00;;;;;;;2.93;2.00;;;5.80;99.90;;;;;;8422735;28;20209;-68
2021/12/01 11:02:11;;;;;;;5.03;4.50;;;5.90;99.90;;;;;;8420466;28;20208;-70
2021/12/01 11:06:21;;;;;;;3.00;2.03;;;6.00;99.90;;;;;;8419561;28;20236;-68
2021/12/01 11:10:25;;;;;;;2.90;1.67;;;6.10;99.90;;;;;;8422805;28;20188;-68
2021/12/01 11:14:26;;;;;;;2.53;1.53;;;6.30;99.90;;;;;;8420286;28;20187;-68
2021/12/01 11:18:36;;;;;;;2.37;1.30;;;6.40;99.90;;;;;;8420729;28;20188;-69
2021/12/01 11:22:37;;;;;;;1.77;1.20;;;6.60;99.90;;;;;;8420930;28;20256;-69
2021/12/01 11:26:44;;;;;;;2.20;1.50;;;6.70;99.90;;;;;;8419953;28;20201;-69
2021/12/01 11:30:49;;;;;;;2.53;1.50;;;6.90;99.90;;;;;;8415578;28;20215;-69
2021/12/01 11:34:50;;;;;;;1.40;0.97;;;7.10;99.90;;;;;;8424975;28;20212;-69
2021/12/01 11:38:52;;;;;;;1.80;1.30;;;7.30;99.90;;;;;;8426826;28;20219;-69
2021/12/01 11:42:55;;;;;;;2.30;1.00;;;7.40;99.90;;;;;;8426758;28;20180;-70
2021/12/01 11:46:55;;;;;;;1.67;1.50;;;7.40;99.90;;;;;;8426087;28;20184;-69
2021/12/01 11:51:01;;;;;;;3.57;1.63;;;7.50;99.90;;;;;;8422323;28;20177;-68
2021/12/01 11:55:02;;;;;;;2.00;1.33;;;7.70;99.90;;;;;;8418073;28;20223;-68
2021/12/01 11:59:20;;;;;;;3.63;1.23;;;7.80;99.90;;;;;;8425992;28;20247;-68
2021/12/01 12:03:25;;;;;;;1.23;1.10;;;7.80;99.90;;;;;;8422441;28;20227;-68
2021/12/01 12:07:26;;;;;;;2.40;1.10;;;7.90;99.90;;;;;;8425531;28;20181;-69
2021/12/01 12:11:59;;;;;;;1.93;1.20;;;7.90;99.90;;;;;;8425843;28;20184;-68
2021/12/01 12:16:00;;;;;;;1.60;1.30;;;7.90;99.90;;;;;;8391664;28;20208;-67
2021/12/01 12:20:18;;;;;;;2.30;1.60;;;7.90;99.90;;;;;;8427833;28;20204;-68
2021/12/01 12:24:20;;;;;;;1.70;1.20;;;7.80;99.90;;;;;;8420769;28;20522;-70
2021/12/01 12:28:36;;;;;;;2.73;1.37;;;7.90;99.90;;;;;;8425397;28;20191;-68
2021/12/01 12:32:37;;;;;;;3.00;1.40;;;8.00;99.90;;;;;;8425518;28;20211;-68
2021/12/01 12:36:44;;;;;;;1.83;1.40;;;8.00;99.90;;;;;;8423121;28;20213;-68
2021/12/01 12:40:46;;;;;;;2.70;1.40;;;7.90;99.90;;;;;;8422468;28;20177;-68
2021/12/01 12:44:48;;;;;;;1.43;1.00;;;7.80;99.90;;;;;;8423491;28;20211;-69
2021/12/01 12:48:51;;;;;;;1.90;1.10;;;7.80;99.90;;;;;;8420594;28;20201;-69
2021/12/01 12:53:05;;;;;;;2.00;1.13;;;7.70;99.90;;;;;;8417808;28;20181;-68
2021/12/01 12:57:07;;;;;;;1.60;1.10;;;7.60;99.90;;;;;;8413195;28;20295;-68
2021/12/01 13:01:23;;;;;;;2.50;1.60;;;7.50;99.90;;;;;;8417474;28;20204;-70
2021/12/01 13:05:37;;;;;;;1.50;1.10;;;7.40;99.90;;;;;;8422354;28;20189;-68
2021/12/01 13:09:38;;;;;;;2.90;1.53;;;7.40;99.90;;;;;;8421634;28;20184;-69
2021/12/01 13:13:53;;;;;;;2.40;1.50;;;7.30;99.90;;;;;;8437466;28;20277;-69
2021/12/01 13:18:00;;;;;;;1.40;1.20;;;7.20;99.90;;;;;;8422969;28;20208;-68
2021/12/01 13:22:11;;;;;;;2.00;1.40;;;7.10;99.90;;;;;;8423311;28;20181;-68
2021/12/01 13:26:21;;;;;;;2.03;1.50;;;7.10;99.90;;;;;;8421844;28;20245;-70
2021/12/01 13:30:22;;;;;;;2.27;1.50;;;7.10;99.90;;;;;;8418885;28;20208;-68
2021/12/01 13:34:29;;;;;;;1.93;1.37;;;7.20;99.90;;;;;;8423111;28;20237;-69
2021/12/01 13:38:36;;;;;;;2.30;1.57;;;7.20;99.90;;;;;;8421737;28;20231;-69
2021/12/01 13:42:36;;;;;;;2.93;2.30;;;7.20;99.90;;;;;;8420828;28;20184;-69
2021/12/01 13:46:38;;;;;;;5.33;3.20;;;7.20;99.90;;;;;;8423035;28;20250;-68
2021/12/01 13:50:39;;;;;;;2.03;1.83;;;7.10;99.90;;;;;;8423302;28;20180;-69
2021/12/01 13:54:40;;;;;;;2.07;1.47;;;7.00;99.90;;;;;;8421308;28;20486;-68
2021/12/01 13:58:45;;;;;;;3.00;1.40;;;7.00;99.90;;;;;;8418851;28;20177;-70
2021/12/01 14:02:51;;;;;;;2.33;1.57;;;7.00;99.90;;;;;;8419244;28;20204;-69
2021/12/01 14:06:54;;;;;;;2.60;1.40;;;7.00;99.90;;;;;;8417403;28;20195;-68
2021/12/01 14:11:24;;;;;;;2.70;1.90;;;6.90;99.90;;;;;;8420219;28;20181;-67
2021/12/01 14:15:49;;;;;;;3.40;1.93;;;6.70;99.90;;;;;;8414201;28;20199;-72
2021/12/01 14:19:55;;;;;;;2.87;1.83;;;6.70;99.90;;;;;;8420515;28;20184;-68
2021/12/01 14:23:58;;;;;;;3.03;2.03;;;6.60;99.90;;;;;;8419649;28;20587;-68
2021/12/01 14:28:13;;;;;;;2.20;1.50;;;6.60;99.90;;;;;;8417004;28;20184;-68
2021/12/01 14:32:14;;;;;;;3.80;1.80;;;6.60;99.90;;;;;;8418660;28;20181;-70
2021/12/01 14:36:15;;;;;;;3.33;1.80;;;6.50;99.90;;;;;;8417461;28;20305;-68
2021/12/01 14:40:19;;;;;;;4.03;2.00;;;6.50;99.90;;;;;;8416081;28;20267;-68
2021/12/01 14:44:36;;;;;;;3.77;1.83;;;6.40;99.90;;;;;;8417970;28;20192;-68
2021/12/01 14:48:38;;;;;;;2.50;1.70;;;6.30;99.90;;;;;;8416857;28;20215;-68
2021/12/01 14:52:39;;;;;;;3.50;2.10;;;6.30;99.90;;;;;;8422191;28;20210;-69
2021/12/01 14:57:02;;;;;;;3.20;2.13;;;6.30;99.90;;;;;;8417630;28;20212;-68
2021/12/01 15:01:09;;;;;;;3.57;2.23;;;6.20;99.90;;;;;;8415532;28;20208;-69
2021/12/01 15:05:21;;;;;;;4.07;2.40;;;6.20;99.90;;;;;;8416989;28;20185;-67
2021/12/01 15:09:37;;;;;;;2.17;1.80;;;6.20;99.90;;;;;;8425345;28;20187;-68
2021/12/01 15:13:41;;;;;;;3.27;1.90;;;6.20;99.90;;;;;;8426820;28;20215;-68
2021/12/01 15:17:55;;;;;;;2.87;2.27;;;6.20;99.90;;;;;;8429641;28;20212;-68
2021/12/01 15:21:56;;;;;;;3.50;1.60;;;6.20;99.90;;;;;;8427503;28;20177;-66
2021/12/01 15:25:57;;;;;;;1.87;1.53;;;6.30;99.90;;;;;;8425942;28;20186;-65
2021/12/01 16:00:19;;;;;;;1.80;1.40;;;6.60;99.90;;;;;;8439085;28;20196;-64
2021/12/01 16:04:20;;;;;;;3.73;1.50;;;6.70;99.90;;;;;;8442307;28;20194;-65
2021/12/01 16:08:22;;;;;;;3.10;1.53;;;6.80;99.90;;;;;;8442606;28;20191;-66
2021/12/01 16:12:24;;;;;;;2.67;1.60;;;6.90;99.90;;;;;;8442027;28;20263;-63
2021/12/01 16:16:25;;;;;;;2.67;1.70;;;7.00;99.90;;;;;;8441048;28;20211;-69
2021/12/01 16:20:27;;;;;;;2.20;1.40;;;7.00;99.90;;;;;;8440468;28;20292;-66
2021/12/01 16:24:28;;;;;;;2.30;1.30;;;7.10;99.90;;;;;;8441441;28;20188;-68
2021/12/01 16:28:30;;;;;;;2.60;1.40;;;7.10;99.90;;;;;;8441510;28;20175;-66
2021/12/01 16:32:31;;;;;;;1.27;1.17;;;7.10;99.90;;;;;;8441219;28;20172;-64
2021/12/01 16:36:32;;;;;;;1.63;1.20;;;7.20;99.90;;;;;;8439887;28;20215;-67
2021/12/01 16:40:34;;;;;;;2.00;1.40;;;7.20;99.90;;;;;;8443000;27;20192;-69
2021/12/01 16:44:37;;;;;;;3.23;1.20;;;7.20;99.90;;;;;;8442699;28;20184;-66
2021/12/01 16:48:38;;;;;;;1.53;1.37;;;7.20;99.90;;;;;;8439591;28;20601;-67
2021/12/01 16:52:40;;;;;;;2.50;1.27;;;7.20;99.90;;;;;;8437104;28;20187;-64
2021/12/01 16:56:41;;;;;;;1.87;1.17;;;7.20;99.90;;;;;;8437430;28;20240;-66
2021/12/01 17:00:48;;;;;;;1.90;1.20;;;7.10;99.90;;;;;;8438273;28;20199;-68
2021/12/01 17:04:53;;;;;;;1.40;1.00;;;7.10;99.90;;;;;;8437544;28;20196;-65
2021/12/01 17:08:54;;;;;;;2.33;1.00;;;7.10;99.90;;;;;;8440709;28;20263;-65
2021/12/01 17:12:56;;;;;;;1.27;0.87;;;7.20;99.90;;;;;;8453331;28;20180;-64
2021/12/01 17:16:57;;;;;;;1.90;1.20;;;7.30;99.90;;;;;;8432814;28;20200;-64
2021/12/01 17:20:59;;;;;;;1.63;0.90;;;7.30;99.90;;;;;;8431803;28;20269;-69
2021/12/01 17:25:00;;;;;;;1.93;1.40;;;7.30;99.90;;;;;;8435878;28;20192;-67
2021/12/01 17:29:02;;;;;;;1.10;0.93;;;7.30;99.90;;;;;;8457918;28;20176;-65
2021/12/01 17:33:03;;;;;;;1.63;1.10;;;7.40;99.90;;;;;;8437404;28;20223;-67
2021/12/01 17:37:05;;;;;;;2.03;1.63;;;7.40;99.90;;;;;;8439564;28;20219;-66
2021/12/01 17:41:06;;;;;;;2.17;1.33;;;7.50;99.90;;;;;;8438331;28;20183;-65
2021/12/01 17:45:08;;;;;;;1.93;1.40;;;7.50;99.90;;;;;;8457158;28;20199;-66
2021/12/01 17:49:09;;;;;;;2.47;1.63;;;7.60;99.90;;;;;;8457737;28;20176;-67
2021/12/01 17:53:10;;;;;;;1.53;1.20;;;7.60;99.90;;;;;;8432733;28;20271;-64
2021/12/01 17:57:11;;;;;;;2.03;1.13;;;7.70;99.90;;;;;;8439011;28;20260;-67
2021/12/01 18:01:12;;;;;;;1.77;1.10;;;7.70;99.90;;;;;;8437746;28;20195;-66
2021/12/01 18:05:16;;;;;;;2.33;1.60;;;7.80;99.90;;;;;;8457624;28;20199;-66
2021/12/01 18:09:18;;;;;;;2.10;1.20;;;7.80;99.90;;;;;;8440517;28;20190;-63
2021/12/01 18:13:21;;;;;;;2.13;1.47;;;7.80;99.90;;;;;;8439836;28;20191;-65
2021/12/01 18:17:22;;;;;;;1.47;1.30;;;7.80;99.90;;;;;;8457487;28;20290;-65
2021/12/01 18:21:24;;;;;;;2.10;1.20;;;7.80;99.90;;;;;;8438097;28;20190;-66
2021/12/01 18:25:26;;;;;;;2.13;1.50;;;7.90;99.90;;;;;;8455662;28;20201;-66
2021/12/01 18:29:34;;;;;;;3.80;1.63;;;7.90;99.90;;;;;;8433939;28;20211;-64
2021/12/01 18:33:36;;;;;;;4.97;2.00;;;7.90;99.90;;;;;;8457643;28;20187;-66
2021/12/01 18:37:38;;;;;;;1.73;1.53;;;7.90;99.90;;;;;;8438700;28;20264;-68
2021/12/01 18:41:39;;;;;;;2.13;1.40;;;8.00;99.90;;;;;;8439845;27;20171;-67
2021/12/01 18:45:40;;;;;;;1.93;1.40;;;8.00;99.90;;;;;;8437927;28;20192;-66
2021/12/01 18:49:42;;;;;;;1.47;1.37;;;8.00;99.90;;;;;;8440940;28;20211;-64
2021/12/01 18:53:43;;;;;;;1.40;1.13;;;8.10;99.90;;;;;;8445044;28;20173;-63
2021/12/01 18:57:44;;;;;;;2.10;1.13;;;8.10;99.90;;;;;;8453779;28;20211;-67
2021/12/01 19:01:45;;;;;;;2.03;1.30;;;8.20;99.90;;;;;;8432946;28;20227;-66
2021/12/01 19:05:46;;;;;;;1.77;1.50;;;8.20;99.90;;;;;;8451161;28;20195;-66
2021/12/01 19:09:47;;;;;;;2.17;1.30;;;8.20;99.90;;;;;;8455646;28;20164;-67
2021/12/01 19:13:50;;;;;;;1.43;1.00;;;8.30;99.90;;;;;;8437124;28;20229;-67
2021/12/01 19:17:55;;;;;;;2.33;1.10;;;8.30;99.90;;;;;;8437259;28;20203;-67
2021/12/01 19:21:56;;;;;;;2.03;1.27;;;8.30;99.90;;;;;;8453084;28;20362;-67
2021/12/01 19:25:57;;;;;;;3.03;1.17;;;8.30;99.90;;;;;;8435003;28;20230;-68
2021/12/01 19:29:59;;;;;;;1.87;1.20;;;8.30;99.90;;;;;;8454954;28;20236;-66
2021/12/01 19:34:01;;;;;;;2.50;1.23;;;8.40;99.90;;;;;;8437935;28;20207;-66
2021/12/01 19:38:05;;;;;;;2.67;1.13;;;8.40;99.90;;;;;;8438038;28;20206;-65
2021/12/01 19:42:07;;;;;;;1.03;0.90;;;8.40;99.90;;;;;;8436144;28;20194;-65
2021/12/01 19:46:10;;;;;;;2.50;1.20;;;8.40;99.90;;;;;;8437107;28;20240;-66
2021/12/01 19:50:15;;;;;;;1.60;1.17;;;8.40;99.90;;;;;;8436859;28;20195;-65
2021/12/01 19:54:16;;;;;;;2.20;1.13;;;8.40;99.90;;;;;;8437445;28;20211;-66
2021/12/01 19:58:18;;;;;;;0.93;0.73;;;8.40;99.90;;;;;;8460900;28;20203;-66
2021/12/01 20:02:20;;;;;;;1.57;1.13;;;8.50;99.90;;;;;;8443128;28;20196;-67
2021/12/01 20:06:24;;;;;;;3.00;1.20;;;8.50;99.90;;;;;;8461371;28;20180;-67
2021/12/01 20:10:28;;;;;;;2.20;1.10;;;8.50;99.90;;;;;;8442058;28;20183;-67
2021/12/01 20:14:30;;;;;;;2.93;1.00;;;8.60;99.90;;;;;;8441938;28;20180;-68
2021/12/01 20:18:31;;;;;;;1.80;1.20;;;8.50;99.90;;;;;;8442901;28;20231;-66
2021/12/01 20:22:34;;;;;;;2.40;1.07;;;8.60;99.90;;;;;;8437394;28;20172;-67
2021/12/01 20:26:35;;;;;;;2.77;1.40;;;8.60;99.90;;;;;;8435662;28;20175;-65
2021/12/01 20:30:37;;;;;;;2.23;1.20;;;8.60;99.90;;;;;;8443186;28;20183;-66
2021/12/01 20:34:38;;;;;;;1.23;1.03;;;8.50;99.90;;;;;;8439375;28;20238;-67
2021/12/01 20:38:48;;;;;;;1.30;1.07;;;8.50;99.90;;;;;;8450567;27;20221;-65
2021/12/01 20:42:50;;;;;;;4.57;1.30;;;8.40;99.90;;;;;;8460411;28;20176;-66
2021/12/01 20:55:30;;;;;;;1.37;1.00;;;8.50;99.90;;;;;;8451637;28;20265;-68
2021/12/01 20:59:44;;;;;;;1.97;1.20;;;8.50;99.90;;;;;;8442033;28;20210;-67
2021/12/01 21:03:46;;;;;;;1.43;1.00;;;8.50;99.90;;;;;;8456983;28;20212;-67
2021/12/01 21:07:48;;;;;;;2.17;1.30;;;8.50;99.90;;;;;;8461153;27;20176;-65
2021/12/01 21:11:52;;;;;;;1.97;1.23;;;8.50;99.90;;;;;;8460290;28;20177;-68
2021/12/01 21:15:57;;;;;;;1.03;0.83;;;8.30;99.90;;;;;;8455579;28;20287;-65
2021/12/01 21:19:58;;;;;;;1.60;1.30;;;8.30;99.90;;;;;;8427430;28;20180;-67
2021/12/01 21:24:00;;;;;;;2.13;1.20;;;8.30;99.90;;;;;;8441214;28;20225;-67
2021/12/01 21:28:09;;;;;;;1.53;1.27;;;8.30;99.90;;;;;;8439327;28;20320;-65
2021/12/01 21:32:11;;;;;;;2.27;1.50;;;8.30;99.90;;;;;;8439573;28;20257;-66
2021/12/01 21:36:14;;;;;;;1.80;1.17;;;8.30;99.90;;;;;;8439296;28;20229;-67
2021/12/01 21:40:17;;;;;;;1.37;0.87;;;8.30;99.90;;;;;;8455933;28;20178;-65
2021/12/01 21:44:19;;;;;;;1.77;1.23;;;8.20;99.90;;;;;;8436329;28;20184;-65
2021/12/01 21:48:20;;;;;;;1.63;1.23;;;8.20;99.90;;;;;;8439177;28;20215;-66
2021/12/01 21:52:24;;;;;;;2.57;1.30;;;8.10;99.90;;;;;;8438941;28;20191;-66
2021/12/01 21:56:27;;;;;;;2.80;1.33;;;8.00;99.90;;;;;;8438223;28;20203;-66
2021/12/01 22:00:29;;;;;;;2.10;1.50;;;7.90;99.90;;;;;;8443159;28;20248;-68
2021/12/01 22:04:36;;;;;;;2.77;1.43;;;7.90;99.90;;;;;;8438789;28;20187;-67
2021/12/01 22:08:39;;;;;;;3.47;1.70;;;7.90;99.90;;;;;;8436795;28;20180;-67